OIFS  Shahrekord  Airport

Shahrekord, Iran

Add Bookmark
ICAO OIFS
IATA CQD
Type Airport
Status Operational
Latitude
32° 17' 49" N
32.297199
Longitude
50° 50' 31" E
50.842201
Local (DST + 5) UTC (GMT + 4)
Feb 11, 2016 12:08 Feb 11, 2016 08:38
Sunrise-Sunset Local UTC
Begin Civil Twilight 06:26 02:56
Sunrise 06:51 03:21
Sunset 05:49 14:19
End Civil Twilight 06:15 14:45
VFR
VFR
MVFR
MVFR
IFR
IFR
LIFR
LIFR
Unknown
Unavailable

Current Weather

METAR Observed VFR
OIFS 110800Z 36004KT 9999 FEW035 BKN080 04/M08 Q1016 Thu, Feb 11, 2016 @ 08:00 UTC
(38 Minutes ago)
Visual Flight Rules
Wind Visibility Clouds Conditions
360° at 4 knots (7 kph) 10 km or more
  • Few at 3,500 ft AGL
  • Broken at 8,000 ft AGL
  • No significant weather
Temperatures Readings Precipitation
Current Temp
4°C
39°F
Dewpoint
-8°C
18°F
Humidity 42%
Altimeter 30" Hg
Sea Level Pressure 1,016 mb
Field Elevation
2,078 m
6,818 ft
None Recorded
-
-

CheckWX.com is intended as a tool to help pilots better visualize weather data. It is not intended as a substitute for an official weather briefing obtained from a Flight Service Station. CheckWX.com does not meet the FAA requirements for an official pre-flight weather briefing. Therefore, it's important that pilots still call and obtain an official FSS pre-flight weather briefing.

© 2007-2016 CheckWX.com
08:38:52 UTC